Time;durP1;ratioP1;P1;durP2;ratioP2;P2;SDS_P1;SDS_P2;PMS_P1;PMS_P2;Temp;Humidity;BMP_temperature;BMP_pressure;BME280_temperature;BME280_humidity;BME280_pressure;Samples;Min_cycle;Max_cycle;Signal;HPM_P1;HPM_P2
2022/11/17 00:01:07;;;;;;;;;;;;;;;16.83;47.28;99659.22;4863881;29;1200;-46
2022/11/17 00:03:33;;;;;;;;;;;;;;;17.90;47.75;99649.94;4868632;29;902;-44
2022/11/17 00:06:02;;;;;;;;;;;;;;;17.08;48.57;99658.78;4863821;29;1144;-41
2022/11/17 00:08:28;;;;;;;;;;;;;;;18.61;47.88;99663.16;4851356;29;1172;-45
2022/11/17 00:10:53;;;;;;;;;;;;;;;18.21;48.75;99657.53;4863420;29;1255;-44
2022/11/17 00:16:02;;;;;;;;;;;;;;;17.20;47.71;99662.97;4867517;29;962;-41
2022/11/17 00:21:18;;;;;;;;;;;;;;;18.17;48.67;99667.50;4863718;29;1231;-43
2022/11/17 00:23:46;;;;;;;;;;;;;;;17.27;48.90;99672.41;4850102;29;1098;-44
2022/11/17 00:26:15;;;;;;;;;;;;;;;17.22;48.56;99656.06;4863472;29;1120;-47
2022/11/17 00:28:41;;;;;;;;;;;;;;;17.99;48.96;99661.84;4864523;29;1176;-40
2022/11/17 00:34:04;;;;;;;;;;;;;;;17.06;47.73;99651.97;4852432;29;1898;-41
2022/11/17 00:36:30;;;;;;;;;;;;;;;17.65;48.65;99648.59;4866776;29;1251;-38
2022/11/17 00:38:55;;;;;;;;;;;;;;;17.05;48.45;99650.34;4854598;29;1195;-43
2022/11/17 00:41:21;;;;;;;;;;;;;;;16.93;48.10;99648.91;4866529;29;1167;-40
2022/11/17 00:43:46;;;;;;;;;;;;;;;17.33;48.72;99642.09;4866927;29;1184;-46
2022/11/17 00:46:12;;;;;;;;;;;;;;;17.01;47.87;99639.16;4866903;29;1219;-42
2022/11/17 00:48:37;;;;;;;;;;;;;;;16.82;47.34;99638.41;4866792;29;1227;-40
2022/11/17 00:51:03;;;;;;;;;;;;;;;17.82;48.08;99634.19;4869453;29;1188;-39
2022/11/17 00:53:29;;;;;;;;;;;;;;;17.04;48.42;99633.06;4866657;29;1211;-42
2022/11/17 00:55:54;;;;;;;;;;;;;;;17.01;48.15;99639.16;4866268;29;1911;-40
2022/11/17 00:58:19;;;;;;;;;;;;;;;17.63;48.66;99643.41;4866473;29;1168;-43
2022/11/17 01:00:47;;;;;;;;;;;;;;;17.00;48.69;99636.69;4866565;29;1169;-46
2022/11/17 01:03:12;;;;;;;;;;;;;;;16.97;48.45;99632.66;4867684;29;1223;-41
2022/11/17 01:05:38;;;;;;;;;;;;;;;17.70;48.44;99627.28;4866409;29;1167;-43
2022/11/17 01:08:03;;;;;;;;;;;;;;;17.00;48.66;99621.03;4866537;29;1263;-43
2022/11/17 01:10:29;;;;;;;;;;;;;;;16.87;47.68;99624.56;4866198;29;1207;-42
2022/11/17 01:12:54;;;;;;;;;;;;;;;17.85;48.31;99623.38;4866208;29;1192;-43
2022/11/17 01:15:19;;;;;;;;;;;;;;;17.15;48.75;99622.66;4865866;29;1982;-45
2022/11/17 01:17:45;;;;;;;;;;;;;;;16.93;47.93;99615.94;4865972;29;1184;-43
2022/11/17 01:20:10;;;;;;;;;;;;;;;17.50;48.58;99611.22;4866021;29;1173;-40
2022/11/17 01:22:36;;;;;;;;;;;;;;;16.99;48.52;99613.91;4866013;29;1207;-41
2022/11/17 01:25:01;;;;;;;;;;;;;;;17.05;48.37;99600.91;4866056;29;1117;-42
2022/11/17 01:27:27;;;;;;;;;;;;;;;17.50;48.80;99605.75;4865945;29;1044;-42
2022/11/17 01:29:52;;;;;;;;;;;;;;;17.12;49.09;99609.53;4865831;29;1242;-42
2022/11/17 01:32:17;;;;;;;;;;;;;;;18.86;47.38;99605.75;4866010;29;1274;-45
2022/11/17 01:34:43;;;;;;;;;;;;;;;17.68;48.83;99602.03;4865436;29;1903;-43
2022/11/17 01:37:20;;;;;;;;;;;;;;;17.30;48.35;99607.81;4865324;29;1211;-46
2022/11/17 01:39:46;;;;;;;;;;;;;;;17.66;48.79;99597.97;4866360;29;910;-42
2022/11/17 01:42:20;;;;;;;;;;;;;;;17.44;49.01;99594.84;4865817;29;1199;-43
2022/11/17 01:44:47;;;;;;;;;;;;;;;17.09;48.38;99582.69;4865199;29;1192;-39
2022/11/17 01:47:32;;;;;;;;;;;;;;;17.92;48.60;99584.47;4865288;29;1284;-40
2022/11/17 01:50:09;;;;;;;;;;;;;;;17.27;48.47;99569.97;4854857;29;1163;-39
2022/11/17 01:52:35;;;;;;;;;;;;;;;16.87;48.06;99577.88;4878099;29;1196;-43
2022/11/17 01:55:00;;;;;;;;;;;;;;;17.68;48.60;99565.47;4848896;29;1934;-42
2022/11/17 01:57:27;;;;;;;;;;;;;;;17.10;48.52;99565.91;4864996;29;1207;-44
2022/11/17 01:59:56;;;;;;;;;;;;;;;16.96;47.65;99572.50;4865115;29;1263;-40
2022/11/17 02:02:21;;;;;;;;;;;;;;;16.69;47.30;99571.34;4865170;29;1176;-41
2022/11/17 02:04:49;;;;;;;;;;;;;;;17.31;48.33;99565.47;4875896;29;1169;-45
2022/11/17 02:07:24;;;;;;;;;;;;;;;17.34;48.59;99570.34;4848932;29;1180;-41
2022/11/17 02:09:50;;;;;;;;;;;;;;;18.91;47.50;99562.38;4865098;29;1191;-41
2022/11/17 02:12:15;;;;;;;;;;;;;;;17.70;49.19;99560.50;4848719;29;1203;-43
2022/11/17 02:14:40;;;;;;;;;;;;;;;17.17;48.53;99548.22;4848574;29;1974;-43
2022/11/17 02:17:06;;;;;;;;;;;;;;;17.05;47.91;99552.25;4874282;29;934;-46
2022/11/17 02:19:32;;;;;;;;;;;;;;;16.95;46.96;99552.50;4865055;29;1148;-39
2022/11/17 02:22:04;;;;;;;;;;;;;;;17.85;48.62;99551.88;4848710;29;1152;-41
2022/11/17 02:24:34;;;;;;;;;;;;;;;17.29;49.03;99542.97;4864868;29;1137;-44
2022/11/17 02:27:18;;;;;;;;;;;;;;;17.79;49.31;99542.94;4848431;29;1081;-42
2022/11/17 02:29:47;;;;;;;;;;;;;;;18.02;49.13;99556.72;4858979;29;1117;-41
2022/11/17 02:32:15;;;;;;;;;;;;;;;17.28;49.10;99555.09;4857137;29;1357;-40
2022/11/17 02:34:40;;;;;;;;;;;;;;;17.18;47.71;99558.06;4848286;29;1911;-43
2022/11/17 02:37:15;;;;;;;;;;;;;;;17.87;48.71;99560.63;4864491;29;1176;-43
2022/11/17 02:39:49;;;;;;;;;;;;;;;17.11;48.89;99558.50;4868262;29;1176;-40
2022/11/17 02:44:02;;;;;;;;;;;;;;;18.39;48.43;99551.94;4856583;29;1179;-46
2022/11/17 02:45:13;;;;;;;;;;;;;;;17.66;49.11;99554.81;4864453;29;1164;-45
2022/11/17 02:47:38;;;;;;;;;;;;;;;17.26;48.33;99557.34;4847316;29;1380;-41
2022/11/17 02:50:07;;;;;;;;;;;;;;;17.06;47.64;99548.41;4864399;29;1506;-43
2022/11/17 02:52:32;;;;;;;;;;;;;;;17.95;48.64;99546.16;4836636;29;1638;-40
2022/11/17 02:55:01;;;;;;;;;;;;;;;17.36;49.20;99535.16;4847792;29;1957;-39
2022/11/17 02:57:27;;;;;;;;;;;;;;;17.05;48.24;99537.72;4863885;29;1203;-40
2022/11/17 02:59:53;;;;;;;;;;;;;;;16.90;47.29;99527.88;4864187;29;1256;-41
2022/11/17 03:02:32;;;;;;;;;;;;;;;17.93;48.38;99536.59;4864339;29;1132;-41
2022/11/17 03:05:18;;;;;;;;;;;;;;;17.07;48.46;99536.31;4855226;29;1168;-41
2022/11/17 03:08:01;;;;;;;;;;;;;;;18.25;48.39;99526.44;4863219;29;1200;-40
2022/11/17 03:10:33;;;;;;;;;;;;;;;17.47;48.91;99523.91;4864648;29;1230;-42
2022/11/17 03:13:17;;;;;;;;;;;;;;;17.08;48.20;99518.72;4864236;29;1235;-41
2022/11/17 03:16:01;;;;;;;;;;;;;;;17.05;48.35;99522.06;4865692;29;1916;-40
2022/11/17 03:18:38;;;;;;;;;;;;;;;17.18;48.83;99514.09;4865065;29;1312;-42
2022/11/17 03:21:13;;;;;;;;;;;;;;;16.91;47.65;99496.56;4847918;29;1231;-45
2022/11/17 03:23:41;;;;;;;;;;;;;;;17.82;48.28;99503.00;4863521;29;1216;-47
2022/11/17 03:26:06;;;;;;;;;;;;;;;17.14;48.38;99491.13;4863878;29;1160;-42
2022/11/17 03:28:32;;;;;;;;;;;;;;;18.67;47.86;99493.91;4867903;29;1200;-41
2022/11/17 03:30:57;;;;;;;;;;;;;;;17.70;49.25;99492.56;4847149;29;1177;-42
2022/11/17 03:33:23;;;;;;;;;;;;;;;17.33;48.60;99499.22;4847787;29;1176;-42
2022/11/17 03:35:50;;;;;;;;;;;;;;;17.00;48.02;99497.47;4847300;29;1984;-41
2022/11/17 03:38:15;;;;;;;;;;;;;;;16.94;46.97;99495.94;4863966;29;1097;-44
2022/11/17 03:40:42;;;;;;;;;;;;;;;17.72;48.24;99490.31;4853676;29;1116;-42
2022/11/17 03:43:08;;;;;;;;;;;;;;;17.31;48.62;99499.53;4847263;29;1255;-41
2022/11/17 03:45:34;;;;;;;;;;;;;;;16.97;47.84;99491.75;4847328;29;1165;-47
2022/11/17 03:48:20;;;;;;;;;;;;;;;16.85;47.25;99486.78;4847798;29;1220;-40
2022/11/17 03:50:47;;;;;;;;;;;;;;;17.15;48.64;99487.25;4825788;29;1137;-45
2022/11/17 03:53:12;;;;;;;;;;;;;;;16.81;48.04;99485.75;4869174;29;940;-43
2022/11/17 03:55:43;;;;;;;;;;;;;;;17.16;47.89;99477.91;4863850;29;1911;-40
2022/11/17 03:58:10;;;;;;;;;;;;;;;17.02;48.42;99469.69;4863345;29;1175;-47
2022/11/17 04:00:36;;;;;;;;;;;;;;;17.62;48.21;99476.81;4846747;29;1184;-46
2022/11/17 04:03:01;;;;;;;;;;;;;;;18.32;48.01;99476.47;4847276;29;1144;-48
2022/11/17 04:05:27;;;;;;;;;;;;;;;17.34;49.05;99476.94;4873436;29;1223;-51
2022/11/17 04:07:52;;;;;;;;;;;;;;;17.07;47.78;99478.63;4865712;29;1144;-52
2022/11/17 04:10:18;;;;;;;;;;;;;;;17.40;48.21;99472.13;4867152;29;1196;-49
2022/11/17 04:18:13;;;;;;;;;;;;;;;17.78;48.97;99480.84;4865882;29;1414;-47
2022/11/17 04:20:39;;;;;;;;;;;;;;;17.11;48.80;99473.34;4867278;29;1001;-45
2022/11/17 04:23:08;;;;;;;;;;;;;;;17.00;47.66;99478.25;4866721;29;1156;-48
2022/11/17 04:28:36;;;;;;;;;;;;;;;16.82;47.13;99479.16;4869929;29;1137;-48
2022/11/17 04:31:08;;;;;;;;;;;;;;;17.47;48.82;99466.19;4871886;29;998;-50
2022/11/17 04:33:34;;;;;;;;;;;;;;;16.85;48.64;99470.31;4866997;29;1021;-46
2022/11/17 04:35:59;;;;;;;;;;;;;;;18.38;48.03;99464.97;4866898;29;1907;-45
2022/11/17 04:38:25;;;;;;;;;;;;;;;17.38;49.10;99466.94;4866385;29;1089;-44
2022/11/17 04:43:34;;;;;;;;;;;;;;;17.65;49.06;99464.41;4866933;29;1179;-45
2022/11/17 04:45:59;;;;;;;;;;;;;;;17.13;48.58;99467.53;4866317;29;1164;-48
2022/11/17 04:48:25;;;;;;;;;;;;;;;18.33;48.24;99472.56;4867136;29;1246;-48
2022/11/17 04:50:57;;;;;;;;;;;;;;;17.48;49.38;99465.88;4866150;29;1160;-48
2022/11/17 04:53:22;;;;;;;;;;;;;;;17.11;48.50;99476.09;4865866;29;866;-51
2022/11/17 04:55:48;;;;;;;;;;;;;;;17.84;49.18;99477.94;4866539;29;1911;-52
2022/11/17 04:58:13;;;;;;;;;;;;;;;17.19;48.98;99478.09;4864964;29;1101;-51
2022/11/17 05:00:39;;;;;;;;;;;;;;;18.32;48.49;99482.78;4866299;29;1200;-48
2022/11/17 05:03:04;;;;;;;;;;;;;;;17.87;49.19;99485.59;4865305;29;1184;-47
2022/11/17 05:05:29;;;;;;;;;;;;;;;17.37;48.42;99476.31;4866000;29;874;-48
2022/11/17 05:07:55;;;;;;;;;;;;;;;17.65;49.23;99467.94;4865808;29;1161;-46
2022/11/17 05:13:20;;;;;;;;;;;;;;;17.60;49.38;99466.16;4865230;29;1117;-50
2022/11/17 05:13:20;;;;;;;;;;;;;;;17.12;48.50;99468.66;4866342;29;1247;-48
2022/11/17 05:18:31;;;;;;;;;;;;;;;17.25;48.34;99457.63;4846687;29;1302;-47
2022/11/17 05:21:03;;;;;;;;;;;;;;;18.29;48.52;99456.69;4865048;29;1263;-48
2022/11/17 05:26:13;;;;;;;;;;;;;;;17.17;48.90;99454.81;4866167;29;1160;-49
2022/11/17 05:28:38;;;;;;;;;;;;;;;17.87;48.96;99452.59;4868008;29;1180;-46
2022/11/17 05:31:04;;;;;;;;;;;;;;;17.36;48.66;99447.22;4866201;29;1541;-50
2022/11/17 05:33:29;;;;;;;;;;;;;;;17.99;48.86;99447.31;4864282;29;1347;-45
2022/11/17 05:35:55;;;;;;;;;;;;;;;17.76;49.32;99447.31;4865069;29;1914;-49
2022/11/17 05:38:20;;;;;;;;;;;;;;;17.33;48.61;99447.03;4865819;29;977;-48
2022/11/17 05:40:46;;;;;;;;;;;;;;;18.13;48.85;99437.06;4867706;29;1289;-49
2022/11/17 05:43:11;;;;;;;;;;;;;;;17.69;48.98;99433.22;4876332;29;1167;-47
2022/11/17 05:45:36;;;;;;;;;;;;;;;17.26;48.07;99431.78;4865266;29;1252;-52
2022/11/17 05:48:02;;;;;;;;;;;;;;;18.08;48.77;99433.63;4865729;29;1097;-48
2022/11/17 05:50:27;;;;;;;;;;;;;;;17.62;49.04;99428.16;4865529;29;1576;-48
2022/11/17 05:52:59;;;;;;;;;;;;;;;17.22;48.19;99424.47;4865452;29;1184;-45
2022/11/17 05:55:25;;;;;;;;;;;;;;;17.02;47.77;99428.50;4865528;29;2011;-50
2022/11/17 05:57:50;;;;;;;;;;;;;;;18.21;48.42;99432.69;4865083;29;1176;-47
2022/11/17 06:00:16;;;;;;;;;;;;;;;17.38;48.61;99442.22;4865367;29;1358;-50
2022/11/17 06:02:45;;;;;;;;;;;;;;;18.22;48.51;99439.84;4865428;29;1120;-46
2022/11/17 06:05:11;;;;;;;;;;;;;;;17.87;48.88;99447.09;4865200;29;1156;-46
2022/11/17 06:07:36;;;;;;;;;;;;;;;17.39;48.27;99443.84;4865150;29;1235;-51
2022/11/17 06:10:02;;;;;;;;;;;;;;;18.21;48.89;99438.22;4865234;29;1171;-49
2022/11/17 06:12:27;;;;;;;;;;;;;;;17.46;48.87;99429.69;4865096;29;1176;-51
2022/11/17 06:14:53;;;;;;;;;;;;;;;17.72;48.94;99427.09;4864293;29;1915;-50
2022/11/17 06:17:22;;;;;;;;;;;;;;;17.82;49.17;99426.00;4865089;29;1244;-49
2022/11/17 06:19:49;;;;;;;;;;;;;;;17.37;48.43;99421.34;4863147;29;1209;-49
2022/11/17 06:22:15;;;;;;;;;;;;;;;18.29;48.65;99406.38;4862937;29;1004;-48
2022/11/17 06:24:43;;;;;;;;;;;;;;;17.38;49.14;99412.00;4864333;29;1261;-47
2022/11/17 06:27:09;;;;;;;;;;;;;;;17.10;48.10;99420.34;4862727;29;1026;-48
2022/11/17 06:29:34;;;;;;;;;;;;;;;16.91;47.46;99415.00;4864435;29;1116;-51
2022/11/17 06:31:59;;;;;;;;;;;;;;;18.35;47.72;99415.28;4867583;29;1354;-48
2022/11/17 06:34:25;;;;;;;;;;;;;;;17.83;48.87;99407.59;4848273;29;1927;-51
2022/11/17 06:36:52;;;;;;;;;;;;;;;17.34;50.10;99405.50;4863248;29;1166;-48
2022/11/17 06:39:17;;;;;;;;;;;;;;;17.16;50.61;99404.53;4865120;29;997;-49
2022/11/17 06:41:43;;;;;;;;;;;;;;;16.93;51.15;99407.25;4864328;29;1129;-52
2022/11/17 06:44:08;;;;;;;;;;;;;;;16.81;51.46;99403.41;4864619;29;1203;-49
2022/11/17 06:46:36;;;;;;;;;;;;;;;16.69;51.70;99410.25;4861173;29;1596;-49
2022/11/17 06:49:08;;;;;;;;;;;;;;;16.56;51.84;99411.06;4863528;29;1430;-46
2022/11/17 06:51:34;;;;;;;;;;;;;;;16.44;52.39;99397.88;4847268;29;1189;-49
2022/11/17 06:53:59;;;;;;;;;;;;;;;16.35;52.35;99397.75;4864505;29;1977;-51
2022/11/17 06:56:25;;;;;;;;;;;;;;;16.28;52.63;99397.38;4847430;29;1220;-51
2022/11/17 06:58:50;;;;;;;;;;;;;;;16.19;52.60;99404.69;4864077;29;1176;-61
2022/11/17 07:01:16;;;;;;;;;;;;;;;16.12;53.03;99407.00;4864226;29;1168;-47
2022/11/17 07:03:44;;;;;;;;;;;;;;;16.03;53.17;99401.41;4864525;29;993;-45
2022/11/17 07:06:10;;;;;;;;;;;;;;;15.99;53.04;99390.25;4863158;29;1137;-43
2022/11/17 07:08:35;;;;;;;;;;;;;;;17.27;50.49;99380.41;4847447;29;1144;-43
2022/11/17 07:11:02;;;;;;;;;;;;;;;16.90;51.08;99382.34;4863566;29;1006;-46
2022/11/17 07:13:27;;;;;;;;;;;;;;;16.45;52.69;99383.00;4863973;29;1173;-44
2022/11/17 07:15:52;;;;;;;;;;;;;;;16.35;53.21;99381.31;4863578;29;1911;-42
2022/11/17 07:18:18;;;;;;;;;;;;;;;16.19;53.18;99380.81;4863187;29;1287;-47
2022/11/17 07:20:44;;;;;;;;;;;;;;;16.10;53.35;99379.88;4862162;29;1526;-49
2022/11/17 07:23:09;;;;;;;;;;;;;;;16.28;53.21;99380.09;4863082;29;1188;-48
2022/11/17 07:25:35;;;;;;;;;;;;;;;17.66;49.92;99362.38;4863599;29;1278;-48
2022/11/17 07:28:01;;;;;;;;;;;;;;;16.75;51.79;99365.09;4863521;29;1264;-43
2022/11/17 07:30:26;;;;;;;;;;;;;;;16.48;52.77;99360.47;4862901;29;1271;-48
2022/11/17 07:32:51;;;;;;;;;;;;;;;16.28;53.01;99360.91;4862141;29;1244;-47
2022/11/17 07:35:18;;;;;;;;;;;;;;;16.16;53.54;99355.91;4862584;29;1899;-49
2022/11/17 07:37:43;;;;;;;;;;;;;;;17.60;49.93;99355.41;4854675;29;1847;-50
2022/11/17 07:40:09;;;;;;;;;;;;;;;16.81;51.74;99348.50;4863201;29;1255;-44
2022/11/17 07:42:34;;;;;;;;;;;;;;;16.48;52.67;99345.94;4862002;29;1350;-48
2022/11/17 07:45:04;;;;;;;;;;;;;;;16.31;53.12;99347.38;4863410;29;1216;-46
2022/11/17 07:47:30;;;;;;;;;;;;;;;16.16;53.33;99348.53;4863244;29;1256;-49
2022/11/17 07:49:55;;;;;;;;;;;;;;;17.52;50.22;99339.66;4863184;29;1224;-48
2022/11/17 07:52:20;;;;;;;;;;;;;;;16.92;51.58;99338.94;4847248;29;1204;-47
2022/11/17 07:54:46;;;;;;;;;;;;;;;16.56;52.85;99331.47;4863346;29;1880;-46
2022/11/17 07:57:11;;;;;;;;;;;;;;;16.31;53.16;99330.91;4861534;29;1183;-51
2022/11/17 07:59:37;;;;;;;;;;;;;;;16.19;53.43;99341.63;4845467;29;1434;-43
2022/11/17 08:02:02;;;;;;;;;;;;;;;17.33;50.98;99326.13;4861693;29;1163;-43
2022/11/17 08:04:28;;;;;;;;;;;;;;;16.91;51.90;99334.56;4863904;29;897;-41
2022/11/17 08:06:53;;;;;;;;;;;;;;;16.48;52.88;99333.03;4863142;29;1175;-42
2022/11/17 08:09:19;;;;;;;;;;;;;;;16.32;53.52;99321.56;4860820;29;1067;-44
2022/11/17 08:11:44;;;;;;;;;;;;;;;16.19;53.42;99322.41;4860924;29;1244;-45
2022/11/17 08:14:13;;;;;;;;;;;;;;;16.12;53.47;99322.00;4861973;29;1899;-45
2022/11/17 08:16:38;;;;;;;;;;;;;;;17.35;51.21;99313.72;4861676;29;1276;-45
2022/11/17 08:19:05;;;;;;;;;;;;;;;16.94;51.77;99320.19;4861671;29;978;-43
2022/11/17 08:21:30;;;;;;;;;;;;;;;16.53;52.92;99316.44;4861849;29;1324;-46
2022/11/17 08:23:55;;;;;;;;;;;;;;;16.30;53.51;99312.84;4864468;29;1660;-44
2022/11/17 08:26:23;;;;;;;;;;;;;;;16.93;52.41;99319.41;4861834;29;1259;-44
2022/11/17 08:28:49;;;;;;;;;;;;;;;17.34;50.83;99317.56;4861324;29;1477;-43
2022/11/17 08:31:14;;;;;;;;;;;;;;;16.72;52.64;99319.03;4862653;29;1191;-41
2022/11/17 08:33:40;;;;;;;;;;;;;;;16.50;53.25;99311.59;4861965;29;1244;-44
2022/11/17 08:36:08;;;;;;;;;;;;;;;16.31;53.39;99319.13;4861334;29;1998;-47
2022/11/17 08:38:33;;;;;;;;;;;;;;;16.19;53.56;99327.91;4860586;29;1415;-49
2022/11/17 08:41:02;;;;;;;;;;;;;;;16.64;52.94;99321.72;4862290;29;1156;-43
2022/11/17 08:43:28;;;;;;;;;;;;;;;17.45;50.76;99327.16;4862611;29;906;-44
2022/11/17 08:45:53;;;;;;;;;;;;;;;16.65;52.77;99324.16;4862386;29;1220;-45
2022/11/17 08:48:19;;;;;;;;;;;;;;;16.43;53.54;99322.16;4861985;29;1164;-44
2022/11/17 08:50:44;;;;;;;;;;;;;;;16.25;53.83;99318.44;4862290;29;1041;-47
2022/11/17 08:53:13;;;;;;;;;;;;;;;16.12;53.85;99311.84;4862892;29;1116;-45
2022/11/17 08:55:38;;;;;;;;;;;;;;;17.36;51.35;99309.00;4862041;29;1914;-45
2022/11/17 08:58:04;;;;;;;;;;;;;;;16.98;51.93;99307.47;4860139;29;1305;-44
2022/11/17 09:00:29;;;;;;;;;;;;;;;16.52;53.29;99308.53;4865709;29;1088;-49
2022/11/17 09:02:55;;;;;;;;;;;;;;;16.24;53.66;99298.44;4865175;29;1259;-45
2022/11/17 09:05:20;;;;;;;;;;;;;;;17.15;52.08;99309.53;4865861;29;1231;-47
2022/11/17 09:07:45;;;;;;;;;;;;;;;17.07;52.00;99300.13;4866121;29;1132;-48
2022/11/17 09:10:11;;;;;;;;;;;;;;;16.58;53.03;99297.13;4864757;29;891;-44
2022/11/17 09:12:36;;;;;;;;;;;;;;;16.37;53.88;99298.72;4866103;29;1195;-44
2022/11/17 09:15:02;;;;;;;;;;;;;;;16.22;53.67;99284.19;4865227;29;1982;-44
2022/11/17 09:17:29;;;;;;;;;;;;;;;16.45;53.86;99291.69;4865814;29;1272;-49
2022/11/17 09:19:54;;;;;;;;;;;;;;;17.55;50.81;99267.56;4862774;29;1409;-46
2022/11/17 09:22:20;;;;;;;;;;;;;;;16.70;52.82;99263.63;4864977;29;1363;-43
2022/11/17 09:24:45;;;;;;;;;;;;;;;16.42;53.89;99261.00;4865611;29;1113;-43
2022/11/17 09:27:11;;;;;;;;;;;;;;;16.23;54.03;99269.38;4848329;29;1215;-47
2022/11/17 09:29:36;;;;;;;;;;;;;;;16.30;53.91;99258.00;4864790;29;1295;-43
2022/11/17 09:32:02;;;;;;;;;;;;;;;17.63;50.80;99275.06;4878155;29;1125;-45
2022/11/17 09:34:28;;;;;;;;;;;;;;;16.79;52.83;99279.34;4864355;29;1911;-46
2022/11/17 09:36:53;;;;;;;;;;;;;;;16.47;53.64;99275.72;4864773;29;1152;-46
2022/11/17 09:39:19;;;;;;;;;;;;;;;16.28;54.03;99287.63;4865044;29;1187;-47
2022/11/17 09:41:44;;;;;;;;;;;;;;;16.43;54.27;99273.59;4864819;29;1117;-49
2022/11/17 09:44:13;;;;;;;;;;;;;;;17.45;51.38;99294.19;4863452;29;1009;-46
2022/11/17 09:46:47;;;;;;;;;;;;;;;16.69;53.66;99296.88;4864487;29;1045;-47
2022/11/17 09:49:19;;;;;;;;;;;;;;;16.41;53.99;99303.28;4862356;29;1194;-44
2022/11/17 09:51:45;;;;;;;;;;;;;;;16.81;53.57;99304.59;4846866;29;892;-45
2022/11/17 09:54:19;;;;;;;;;;;;;;;17.13;52.27;99311.00;4847656;29;1969;-48
2022/11/17 09:56:45;;;;;;;;;;;;;;;16.53;54.16;99327.41;4847170;29;1038;-44
2022/11/17 09:59:11;;;;;;;;;;;;;;;16.35;54.29;99315.47;4864381;29;1105;-44
2022/11/17 10:01:37;;;;;;;;;;;;;;;16.45;54.25;99324.59;4848381;29;1129;-50
2022/11/17 10:04:06;;;;;;;;;;;;;;;17.64;51.11;99331.63;4864258;29;1207;-48
2022/11/17 10:06:32;;;;;;;;;;;;;;;16.72;53.66;99321.78;4847891;29;1208;-49
2022/11/17 10:09:01;;;;;;;;;;;;;;;16.41;54.28;99322.47;4864120;29;907;-44
2022/11/17 10:11:34;;;;;;;;;;;;;;;16.22;54.45;99311.63;4847926;29;1184;-46
2022/11/17 10:14:00;;;;;;;;;;;;;;;16.09;54.56;99307.00;4865222;29;1981;-47
2022/11/17 10:16:25;;;;;;;;;;;;;;;15.98;54.95;99311.06;4864562;29;1192;-46
2022/11/17 10:18:51;;;;;;;;;;;;;;;15.92;54.68;99313.06;4863863;29;1199;-45
2022/11/17 10:21:16;;;;;;;;;;;;;;;16.83;53.50;99316.88;4864447;29;1104;-45
2022/11/17 10:23:45;;;;;;;;;;;;;;;16.96;53.20;99319.88;4864077;29;1248;-47
2022/11/17 10:26:11;;;;;;;;;;;;;;;16.34;54.66;99321.25;4863552;29;1192;-48
2022/11/17 10:28:37;;;;;;;;;;;;;;;16.14;54.97;99319.78;4863514;29;1343;-46
2022/11/17 10:31:03;;;;;;;;;;;;;;;15.95;55.16;99312.47;4865112;29;1272;-49
2022/11/17 10:33:47;;;;;;;;;;;;;;;17.15;53.14;99309.53;4863749;29;1046;-46
2022/11/17 10:36:19;;;;;;;;;;;;;;;16.73;54.06;99330.81;4865702;29;1903;-44
2022/11/17 10:38:48;;;;;;;;;;;;;;;16.31;54.75;99335.59;4851171;29;1109;-46
2022/11/17 10:41:22;;;;;;;;;;;;;;;16.10;54.98;99335.22;4863660;29;1184;-46
2022/11/17 10:44:14;;;;;;;;;;;;;;;16.42;55.05;99340.56;4846690;29;1330;-47
2022/11/17 10:46:59;;;;;;;;;;;;;;;17.01;53.50;99337.09;4858848;29;1274;-42
2022/11/17 10:49:25;;;;;;;;;;;;;;;16.36;55.12;99339.03;4863402;29;1144;-47
2022/11/17 10:52:13;;;;;;;;;;;;;;;16.16;55.26;99333.97;4862750;29;1313;-44
2022/11/17 10:54:38;;;;;;;;;;;;;;;15.99;55.24;99334.59;4844177;29;1919;-45
2022/11/17 10:57:04;;;;;;;;;;;;;;;15.88;55.40;99326.59;4846678;29;1350;-47
2022/11/17 10:59:40;;;;;;;;;;;;;;;16.82;54.19;99322.69;4862193;29;1177;-48
2022/11/17 11:02:24;;;;;;;;;;;;;;;16.97;53.68;99327.00;4846196;29;1181;-46
2022/11/17 11:04:58;;;;;;;;;;;;;;;16.34;55.09;99324.84;4862575;29;1296;-45
2022/11/17 11:07:23;;;;;;;;;;;;;;;16.11;55.73;99312.97;4845481;29;1233;-42
2022/11/17 11:09:56;;;;;;;;;;;;;;;15.95;55.69;99312.47;4862260;29;1262;-48
2022/11/17 11:12:42;;;;;;;;;;;;;;;17.28;53.12;99303.16;4862209;29;1182;-50
2022/11/17 11:15:15;;;;;;;;;;;;;;;16.46;54.97;99302.34;4859478;29;1922;-47
2022/11/17 11:17:41;;;;;;;;;;;;;;;16.18;55.56;99299.66;4861862;29;1216;-48
2022/11/17 11:20:06;;;;;;;;;;;;;;;15.99;55.48;99302.53;4862569;29;1223;-43
2022/11/17 11:22:32;;;;;;;;;;;;;;;15.88;55.55;99301.91;4845235;29;1304;-45
2022/11/17 11:25:00;;;;;;;;;;;;;;;16.82;54.65;99292.50;4862652;29;1226;-45
2022/11/17 11:27:45;;;;;;;;;;;;;;;17.07;53.50;99285.59;4862583;29;1251;-46
2022/11/17 11:30:11;;;;;;;;;;;;;;;16.37;55.31;99288.56;4860599;29;1246;-46
2022/11/17 11:32:42;;;;;;;;;;;;;;;16.12;55.78;99289.91;4863130;29;1100;-45
2022/11/17 11:35:27;;;;;;;;;;;;;;;15.98;55.68;99295.41;4860930;29;1915;-48
2022/11/17 11:37:52;;;;;;;;;;;;;;;16.88;54.40;99283.81;4860551;29;1212;-46
2022/11/17 11:40:20;;;;;;;;;;;;;;;16.84;54.27;99296.53;4861746;29;1361;-42
2022/11/17 11:42:51;;;;;;;;;;;;;;;16.33;55.52;99289.47;4846586;29;1259;-46
2022/11/17 11:45:19;;;;;;;;;;;;;;;16.12;55.88;99283.59;4860976;29;1201;-44
2022/11/17 11:47:57;;;;;;;;;;;;;;;15.97;55.63;99280.06;4862201;29;1268;-43
2022/11/17 11:50:27;;;;;;;;;;;;;;;15.85;55.87;99274.28;4845843;29;1066;-48
2022/11/17 11:52:58;;;;;;;;;;;;;;;16.71;54.95;99268.00;4862011;29;1275;-43
2022/11/17 11:55:25;;;;;;;;;;;;;;;16.82;54.63;99265.03;4844752;29;1982;-44
2022/11/17 11:57:59;;;;;;;;;;;;;;;16.30;55.75;99266.22;4861976;29;1216;-44
2022/11/17 12:00:25;;;;;;;;;;;;;;;16.02;56.03;99263.53;4861377;29;1039;-42
2022/11/17 12:02:50;;;;;;;;;;;;;;;15.90;55.97;99255.00;4862667;29;1129;-45
2022/11/17 12:05:38;;;;;;;;;;;;;;;16.72;55.22;99264.16;4862134;29;1240;-49
2022/11/17 12:08:06;;;;;;;;;;;;;;;16.77;54.74;99255.81;4851058;29;1293;-47
2022/11/17 12:11:59;;;;;;;;;;;;;;;16.29;55.97;99250.06;4845991;29;1207;-46
2022/11/17 12:13:52;;;;;;;;;;;;;;;16.02;55.96;99252.56;4799321;29;1425;-46
2022/11/17 12:16:18;;;;;;;;;;;;;;;16.74;55.45;99242.69;4856493;29;1915;-51
2022/11/17 12:18:44;;;;;;;;;;;;;;;17.02;54.63;99255.50;4845836;29;1205;-45
2022/11/17 12:21:09;;;;;;;;;;;;;;;16.37;55.75;99269.34;4862403;29;1247;-48
2022/11/17 12:23:41;;;;;;;;;;;;;;;16.13;56.10;99269.59;4862687;29;1140;-47
2022/11/17 12:26:06;;;;;;;;;;;;;;;15.98;56.21;99268.00;4863016;29;1199;-46
2022/11/17 12:28:38;;;;;;;;;;;;;;;15.89;56.14;99280.78;4847862;29;1192;-47
2022/11/17 12:31:10;;;;;;;;;;;;;;;17.37;54.17;99258.44;4871630;29;1144;-46
2022/11/17 12:33:51;;;;;;;;;;;;;;;16.75;55.34;99257.22;4872143;29;1053;-46
2022/11/17 12:36:23;;;;;;;;;;;;;;;16.35;56.09;99266.09;4862747;29;1911;-46
2022/11/17 12:38:49;;;;;;;;;;;;;;;16.14;56.15;99267.66;4865177;29;1203;-45
2022/11/17 12:41:14;;;;;;;;;;;;;;;16.00;55.94;99264.94;4865316;29;1247;-46
2022/11/17 12:43:39;;;;;;;;;;;;;;;15.84;56.11;99272.69;4849139;29;1220;-48
2022/11/17 12:46:11;;;;;;;;;;;;;;;16.52;56.00;99270.94;4866153;29;1256;-48
2022/11/17 12:48:37;;;;;;;;;;;;;;;17.20;54.27;99275.66;4865726;29;1199;-49
2022/11/17 12:51:05;;;;;;;;;;;;;;;16.43;56.08;99281.81;4849595;29;1196;-45
2022/11/17 12:53:32;;;;;;;;;;;;;;;16.16;56.58;99273.66;4865617;29;1113;-48
2022/11/17 12:56:16;;;;;;;;;;;;;;;16.01;56.47;99283.81;4849216;29;1911;-48
2022/11/17 12:58:47;;;;;;;;;;;;;;;16.06;56.72;99286.47;4861945;29;1425;-49
2022/11/17 13:01:42;;;;;;;;;;;;;;;17.55;53.63;99289.56;4864585;29;1116;-46
2022/11/17 13:04:14;;;;;;;;;;;;;;;16.57;55.85;99283.72;4842473;29;1388;-48
2022/11/17 13:07:00;;;;;;;;;;;;;;;16.22;56.50;99288.88;4848494;29;1295;-46
2022/11/17 13:09:26;;;;;;;;;;;;;;;16.10;56.60;99283.09;4861632;29;1732;-45
2022/11/17 13:12:03;;;;;;;;;;;;;;;17.42;54.14;99291.28;4865038;29;1240;-47
2022/11/17 13:14:29;;;;;;;;;;;;;;;16.53;56.13;99291.75;4847226;29;1915;-43
2022/11/17 13:16:55;;;;;;;;;;;;;;;16.25;56.27;99299.25;4865675;29;1215;-47
2022/11/17 13:19:33;;;;;;;;;;;;;;;16.07;56.19;99310.03;4864909;29;1290;-45
2022/11/17 13:22:12;;;;;;;;;;;;;;;15.94;56.17;99308.09;4865357;29;919;-48
2022/11/17 13:24:38;;;;;;;;;;;;;;;15.82;56.29;99302.31;4864901;29;1203;-43
2022/11/17 13:27:07;;;;;;;;;;;;;;;16.77;55.85;99299.72;4865439;29;1212;-50
2022/11/17 13:29:33;;;;;;;;;;;;;;;17.25;54.87;99297.47;4865531;29;1018;-45